NASA577 KCNW-KATL
Flight info
| Callsign | NASA577 |
|---|---|
| Flight time | N/A |
| Altitude | 39000 |
| Route | WEIRS SWB MEI DRSDN HOBTT2 |
| Aircraft | B772/H-SDE2E3FGHIJ5LORVWXY/LB1D1 |
Departure
| Time | 2026-04-30 13:53 |
|---|---|
| Airport | TSTC Waco Airport (KCNW) |
Arrival
| Time | N/A |
|---|---|
| Airport | Hartsfield Jackson Atlanta International Airport (KATL) |
| Time | Latitude | Longitude | Altitude | Speed | Heading |
|---|---|---|---|---|---|
| 2026-04-30 13:47 | 31.63204 | -97.07652 | 475 ft | 0 kts | 169° |
| 2026-04-30 13:50 | 31.63183 | -97.07645 | 475 ft | 6 kts | 163° |
| 2026-04-30 13:50 | 31.63137 | -97.07610 | 474 ft | 2 kts | 137° |
| 2026-04-30 13:50 | 31.63088 | -97.07561 | 473 ft | 14 kts | 140° |
| 2026-04-30 13:51 | 31.62980 | -97.07514 | 471 ft | 25 kts | 175° |
| 2026-04-30 13:51 | 31.62805 | -97.07502 | 471 ft | 17 kts | 172° |
| 2026-04-30 13:51 | 31.62770 | -97.07463 | 470 ft | 12 kts | 85° |
| 2026-04-30 13:51 | 31.62841 | -97.07362 | 469 ft | 24 kts | 45° |
| 2026-04-30 13:52 | 31.62953 | -97.07273 | 470 ft | 17 kts | 5° |
| 2026-04-30 13:52 | 31.62972 | -97.07272 | 470 ft | 0 kts | 353° |
| 2026-04-30 13:53 | 31.63112 | -97.07279 | 470 ft | 71 kts | 358° |
| 2026-04-30 13:53 | 31.63991 | -97.07322 | 548 ft | 170 kts | 358° |
| 2026-04-30 13:53 | 31.65209 | -97.07392 | 1586 ft | 184 kts | 359° |
| 2026-04-30 13:53 | 31.66386 | -97.07510 | 3240 ft | 176 kts | 359° |
| 2026-04-30 13:54 | 31.67525 | -97.07626 | 4306 ft | 171 kts | 0° |
| 2026-04-30 13:54 | 31.68688 | -97.07256 | 4940 ft | 187 kts | 35° |
| 2026-04-30 13:54 | 31.69449 | -97.05942 | 5536 ft | 212 kts | 75° |
| 2026-04-30 13:54 | 31.69726 | -97.04144 | 6201 ft | 234 kts | 79° |
| 2026-04-30 13:55 | 31.69979 | -97.02189 | 6921 ft | 254 kts | 79° |
| 2026-04-30 13:55 | 31.70251 | -97.00075 | 7647 ft | 273 kts | 79° |
| 2026-04-30 13:55 | 31.70542 | -96.97807 | 8302 ft | 295 kts | 79° |
| 2026-04-30 13:55 | 31.70852 | -96.95382 | 9072 ft | 310 kts | 79° |
| 2026-04-30 13:56 | 31.71175 | -96.92851 | 10027 ft | 320 kts | 79° |
| 2026-04-30 13:56 | 31.71510 | -96.90220 | 10860 ft | 334 kts | 79° |
| 2026-04-30 13:56 | 31.71863 | -96.87455 | 11620 ft | 351 kts | 79° |
| 2026-04-30 13:56 | 31.72230 | -96.84565 | 12352 ft | 367 kts | 79° |
| 2026-04-30 13:57 | 31.72613 | -96.81537 | 13070 ft | 383 kts | 79° |
| 2026-04-30 13:57 | 31.73011 | -96.78387 | 13764 ft | 399 kts | 80° |
| 2026-04-30 13:57 | 31.73427 | -96.75083 | 14418 ft | 415 kts | 80° |
| 2026-04-30 13:57 | 31.73861 | -96.71622 | 15058 ft | 431 kts | 80° |
| 2026-04-30 13:58 | 31.74302 | -96.68102 | 15786 ft | 443 kts | 81° |
| 2026-04-30 13:58 | 31.75201 | -96.60888 | 17554 ft | 454 kts | 82° |
| 2026-04-30 13:58 | 31.75663 | -96.57163 | 18347 ft | 462 kts | 82° |
| 2026-04-30 13:59 | 31.76121 | -96.53451 | 19053 ft | 471 kts | 81° |
| 2026-04-30 13:59 | 31.76599 | -96.49578 | 19798 ft | 480 kts | 81° |
| 2026-04-30 13:59 | 31.77074 | -96.45724 | 20547 ft | 487 kts | 81° |
| 2026-04-30 13:59 | 31.77609 | -96.41362 | 21390 ft | 494 kts | 80° |
| 2026-04-30 14:00 | 31.78096 | -96.37387 | 22132 ft | 501 kts | 80° |
| 2026-04-30 14:00 | 31.79097 | -96.29180 | 23504 ft | 514 kts | 81° |
| 2026-04-30 14:00 | 31.79602 | -96.25028 | 24082 ft | 523 kts | 81° |
| 2026-04-30 14:01 | 31.80115 | -96.20789 | 24771 ft | 528 kts | 81° |
| 2026-04-30 14:01 | 31.80634 | -96.16489 | 25442 ft | 534 kts | 81° |
| 2026-04-30 14:01 | 31.81154 | -96.12174 | 26060 ft | 540 kts | 81° |
| 2026-04-30 14:01 | 31.81677 | -96.07813 | 26709 ft | 545 kts | 80° |
| 2026-04-30 14:02 | 31.82208 | -96.03378 | 27321 ft | 551 kts | 81° |
| 2026-04-30 14:02 | 31.82741 | -95.98907 | 27886 ft | 557 kts | 80° |
| 2026-04-30 14:02 | 31.83278 | -95.94394 | 28465 ft | 563 kts | 80° |
| 2026-04-30 14:02 | 31.83823 | -95.89797 | 29076 ft | 568 kts | 80° |
| 2026-04-30 14:03 | 31.84368 | -95.85186 | 29766 ft | 571 kts | 80° |
| 2026-04-30 14:03 | 31.84858 | -95.80584 | 30553 ft | 572 kts | 83° |
| 2026-04-30 14:03 | 31.85138 | -95.75925 | 31392 ft | 572 kts | 84° |
| 2026-04-30 14:03 | 31.85378 | -95.71243 | 32275 ft | 571 kts | 85° |
| 2026-04-30 14:04 | 31.85613 | -95.66582 | 33139 ft | 569 kts | 84° |
| 2026-04-30 14:04 | 31.85846 | -95.61943 | 34035 ft | 569 kts | 85° |
| 2026-04-30 14:04 | 31.86077 | -95.57342 | 34919 ft | 568 kts | 85° |
| 2026-04-30 14:04 | 31.86307 | -95.52715 | 35797 ft | 567 kts | 85° |
| 2026-04-30 14:05 | 31.86534 | -95.48114 | 36726 ft | 564 kts | 85° |
| 2026-04-30 14:05 | 31.86760 | -95.43509 | 37467 ft | 563 kts | 84° |
| 2026-04-30 14:05 | 31.86983 | -95.38951 | 38005 ft | 564 kts | 84° |
| 2026-04-30 14:05 | 31.87207 | -95.34333 | 38570 ft | 564 kts | 85° |
| 2026-04-30 14:06 | 31.87428 | -95.29755 | 38968 ft | 566 kts | 85° |
| 2026-04-30 14:06 | 31.87867 | -95.20532 | 38972 ft | 568 kts | 85° |
| 2026-04-30 14:07 | 31.88518 | -95.06617 | 38973 ft | 568 kts | 85° |
| 2026-04-30 14:08 | 31.89152 | -94.92738 | 38970 ft | 567 kts | 85° |
| 2026-04-30 14:08 | 31.89770 | -94.78893 | 38976 ft | 570 kts | 85° |
| 2026-04-30 14:09 | 31.90174 | -94.69619 | 38978 ft | 567 kts | 85° |
| 2026-04-30 14:10 | 31.90771 | -94.55665 | 38985 ft | 567 kts | 85° |
| 2026-04-30 14:10 | 31.91156 | -94.46463 | 38988 ft | 567 kts | 85° |
| 2026-04-30 14:11 | 31.91540 | -94.37154 | 38991 ft | 570 kts | 85° |
| 2026-04-30 14:11 | 31.91915 | -94.27858 | 38971 ft | 568 kts | 85° |
| 2026-04-30 14:12 | 31.92282 | -94.18607 | 38979 ft | 570 kts | 85° |
| 2026-04-30 14:12 | 31.92645 | -94.09297 | 38976 ft | 570 kts | 85° |
| 2026-04-30 14:13 | 31.93000 | -94.00009 | 38982 ft | 567 kts | 85° |
| 2026-04-30 14:13 | 31.93349 | -93.90709 | 38987 ft | 571 kts | 85° |
| 2026-04-30 14:14 | 31.93692 | -93.81368 | 38992 ft | 569 kts | 85° |
| 2026-04-30 14:14 | 31.94027 | -93.72053 | 38995 ft | 568 kts | 85° |
| 2026-04-30 14:15 | 31.94355 | -93.62776 | 38993 ft | 568 kts | 85° |
| 2026-04-30 14:15 | 31.94674 | -93.53518 | 38997 ft | 567 kts | 84° |
| 2026-04-30 14:16 | 31.94988 | -93.44249 | 38996 ft | 567 kts | 85° |
| 2026-04-30 14:16 | 31.95294 | -93.35009 | 38997 ft | 567 kts | 85° |
| 2026-04-30 14:17 | 31.95594 | -93.25725 | 38970 ft | 565 kts | 85° |
| 2026-04-30 14:17 | 31.95885 | -93.16524 | 38981 ft | 564 kts | 85° |
| 2026-04-30 14:18 | 31.96174 | -93.07214 | 38995 ft | 568 kts | 85° |
| 2026-04-30 14:18 | 31.96589 | -92.93360 | 38999 ft | 569 kts | 85° |
| 2026-04-30 14:19 | 31.96994 | -92.79359 | 39010 ft | 570 kts | 85° |
| 2026-04-30 14:20 | 31.97254 | -92.70077 | 39011 ft | 570 kts | 85° |
| 2026-04-30 14:20 | 31.98473 | -92.56269 | 39017 ft | 565 kts | 76° |
| 2026-04-30 14:21 | 31.99650 | -92.47160 | 39012 ft | 563 kts | 77° |
| 2026-04-30 14:22 | 32.01344 | -92.33424 | 39005 ft | 566 kts | 78° |
| 2026-04-30 14:22 | 32.02981 | -92.19697 | 39000 ft | 567 kts | 77° |
| 2026-04-30 14:23 | 32.05129 | -92.01271 | 39006 ft | 569 kts | 77° |
| 2026-04-30 14:24 | 32.06707 | -91.87511 | 39003 ft | 566 kts | 77° |
| 2026-04-30 14:25 | 32.08786 | -91.69147 | 39016 ft | 566 kts | 77° |
| 2026-04-30 14:26 | 32.10329 | -91.55353 | 39020 ft | 567 kts | 77° |
| 2026-04-30 14:27 | 32.11857 | -91.41546 | 39015 ft | 566 kts | 77° |
| 2026-04-30 14:27 | 32.12862 | -91.32389 | 38989 ft | 566 kts | 77° |
| 2026-04-30 14:28 | 32.14360 | -91.18624 | 38985 ft | 566 kts | 78° |
| 2026-04-30 14:28 | 32.15350 | -91.09438 | 38988 ft | 566 kts | 77° |
| 2026-04-30 14:29 | 32.17153 | -90.92570 | 39002 ft | 567 kts | 78° |
| 2026-04-30 14:31 | 32.19733 | -90.68021 | 39010 ft | 566 kts | 77° |
| 2026-04-30 14:31 | 32.21155 | -90.54294 | 39017 ft | 566 kts | 77° |
| 2026-04-30 14:32 | 32.22567 | -90.40510 | 39030 ft | 564 kts | 77° |
| 2026-04-30 14:33 | 32.23500 | -90.31321 | 39002 ft | 564 kts | 78° |
| 2026-04-30 14:33 | 32.24883 | -90.17571 | 39013 ft | 564 kts | 77° |
| 2026-04-30 14:34 | 32.25796 | -90.08410 | 39014 ft | 562 kts | 78° |
| 2026-04-30 14:34 | 32.26702 | -89.99251 | 39013 ft | 563 kts | 78° |
| 2026-04-30 14:35 | 32.28053 | -89.85477 | 39016 ft | 563 kts | 78° |
| 2026-04-30 14:36 | 32.28941 | -89.76327 | 39010 ft | 564 kts | 78° |
| 2026-04-30 14:36 | 32.29824 | -89.67158 | 39006 ft | 563 kts | 77° |
| 2026-04-30 14:37 | 32.30700 | -89.57995 | 39017 ft | 562 kts | 77° |
| 2026-04-30 14:37 | 32.31568 | -89.48849 | 39017 ft | 563 kts | 77° |
| 2026-04-30 14:38 | 32.32435 | -89.39647 | 39020 ft | 564 kts | 78° |
| 2026-04-30 14:38 | 32.33289 | -89.30484 | 38994 ft | 562 kts | 78° |
| 2026-04-30 14:39 | 32.34139 | -89.21321 | 39001 ft | 564 kts | 78° |
| 2026-04-30 14:39 | 32.34988 | -89.12077 | 39003 ft | 563 kts | 78° |
| 2026-04-30 14:40 | 32.36234 | -88.98364 | 39016 ft | 561 kts | 78° |
| 2026-04-30 14:40 | 32.37058 | -88.89226 | 39016 ft | 562 kts | 78° |
| 2026-04-30 14:41 | 32.38025 | -88.80093 | 39029 ft | 558 kts | 70° |
| 2026-04-30 14:41 | 32.40230 | -88.71365 | 39027 ft | 551 kts | 63° |
| 2026-04-30 14:42 | 32.42595 | -88.62831 | 39027 ft | 543 kts | 63° |
| 2026-04-30 14:42 | 32.44939 | -88.54329 | 39031 ft | 550 kts | 63° |
| 2026-04-30 14:43 | 32.47266 | -88.45790 | 39034 ft | 542 kts | 63° |
| 2026-04-30 14:43 | 32.49574 | -88.37298 | 39034 ft | 547 kts | 63° |
| 2026-04-30 14:44 | 32.51899 | -88.28698 | 39011 ft | 547 kts | 64° |
| 2026-04-30 14:44 | 32.54200 | -88.20155 | 39008 ft | 547 kts | 64° |
| 2026-04-30 14:45 | 32.56497 | -88.11591 | 39012 ft | 548 kts | 64° |
| 2026-04-30 14:45 | 32.58787 | -88.03024 | 39008 ft | 545 kts | 64° |
| 2026-04-30 14:46 | 32.61083 | -87.94412 | 39016 ft | 547 kts | 64° |
| 2026-04-30 14:46 | 32.63356 | -87.85857 | 39016 ft | 546 kts | 64° |
| 2026-04-30 14:47 | 32.65619 | -87.77313 | 39019 ft | 546 kts | 64° |
| 2026-04-30 14:47 | 32.67882 | -87.68742 | 39016 ft | 545 kts | 64° |
| 2026-04-30 14:48 | 32.70125 | -87.60216 | 39022 ft | 540 kts | 64° |
| 2026-04-30 14:48 | 32.72362 | -87.51699 | 39025 ft | 542 kts | 64° |
| 2026-04-30 14:49 | 32.74580 | -87.43220 | 39024 ft | 541 kts | 64° |
| 2026-04-30 14:49 | 32.76801 | -87.34702 | 39026 ft | 538 kts | 65° |
| 2026-04-30 14:50 | 32.80120 | -87.21929 | 39000 ft | 537 kts | 64° |
| 2026-04-30 14:51 | 32.83412 | -87.09207 | 39002 ft | 541 kts | 65° |
| 2026-04-30 14:52 | 32.86689 | -86.96469 | 39002 ft | 537 kts | 64° |
| 2026-04-30 14:52 | 32.89938 | -86.83791 | 39002 ft | 536 kts | 65° |
| 2026-04-30 14:53 | 32.93216 | -86.70944 | 39008 ft | 540 kts | 65° |
| 2026-04-30 14:54 | 32.95373 | -86.62453 | 38269 ft | 541 kts | 65° |
| 2026-04-30 14:54 | 32.97519 | -86.53955 | 36898 ft | 528 kts | 64° |
| 2026-04-30 14:55 | 32.99477 | -86.45544 | 33842 ft | 542 kts | 73° |
| 2026-04-30 14:55 | 32.99865 | -86.40994 | 32924 ft | 574 kts | 81° |
| 2026-04-30 14:55 | 33.00140 | -86.31582 | 31251 ft | 577 kts | 84° |
| 2026-04-30 14:56 | 33.00373 | -86.22028 | 29851 ft | 577 kts | 84° |
| 2026-04-30 14:56 | 33.01326 | -86.12543 | 28674 ft | 573 kts | 71° |
| 2026-04-30 14:57 | 33.02363 | -86.08064 | 28101 ft | 565 kts | 69° |
| 2026-04-30 14:57 | 33.04511 | -85.99197 | 26948 ft | 547 kts | 69° |
| 2026-04-30 14:58 | 33.06584 | -85.90633 | 25809 ft | 532 kts | 69° |
| 2026-04-30 14:58 | 33.07601 | -85.86423 | 25241 ft | 526 kts | 70° |
| 2026-04-30 14:58 | 33.09600 | -85.78136 | 24100 ft | 515 kts | 70° |
| 2026-04-30 14:59 | 33.11543 | -85.70055 | 22991 ft | 502 kts | 71° |
| 2026-04-30 15:00 | 33.14371 | -85.58244 | 21278 ft | 489 kts | 71° |
| 2026-04-30 15:00 | 33.16207 | -85.50550 | 20149 ft | 478 kts | 70° |
| 2026-04-30 15:01 | 33.17992 | -85.43045 | 19018 ft | 465 kts | 71° |
| 2026-04-30 15:01 | 33.18578 | -85.40578 | 18643 ft | 463 kts | 71° |
| 2026-04-30 15:01 | 33.20598 | -85.32055 | 17317 ft | 451 kts | 71° |
| 2026-04-30 15:02 | 33.21435 | -85.28511 | 16758 ft | 445 kts | 71° |
| 2026-04-30 15:02 | 33.22268 | -85.24979 | 16247 ft | 440 kts | 71° |
| 2026-04-30 15:03 | 33.24718 | -85.14571 | 14850 ft | 427 kts | 71° |
| 2026-04-30 15:03 | 33.26304 | -85.07788 | 14125 ft | 421 kts | 71° |
| 2026-04-30 15:04 | 33.27899 | -85.01106 | 13394 ft | 413 kts | 71° |
| 2026-04-30 15:04 | 33.30254 | -84.91291 | 12300 ft | 408 kts | 71° |
| 2026-04-30 15:05 | 33.32603 | -84.81637 | 11212 ft | 398 kts | 71° |
| 2026-04-30 15:06 | 33.34159 | -84.75324 | 10497 ft | 392 kts | 70° |
| 2026-04-30 15:06 | 33.35665 | -84.69224 | 9966 ft | 369 kts | 70° |
| 2026-04-30 15:07 | 33.37074 | -84.63522 | 9495 ft | 345 kts | 70° |
| 2026-04-30 15:07 | 33.38374 | -84.58166 | 9027 ft | 327 kts | 70° |
| 2026-04-30 15:08 | 33.39607 | -84.53047 | 8548 ft | 312 kts | 69° |
| 2026-04-30 15:08 | 33.42679 | -84.46638 | 7731 ft | 291 kts | 52° |
| 2026-04-30 15:09 | 33.44857 | -84.42568 | 7083 ft | 287 kts | 52° |
| 2026-04-30 15:09 | 33.46650 | -84.38364 | 6536 ft | 285 kts | 73° |
| 2026-04-30 15:10 | 33.47399 | -84.33977 | 6420 ft | 254 kts | 75° |
| 2026-04-30 15:11 | 33.48718 | -84.25994 | 5743 ft | 220 kts | 74° |
| 2026-04-30 15:11 | 33.49250 | -84.22525 | 5343 ft | 209 kts | 75° |
| 2026-04-30 15:12 | 33.50377 | -84.17077 | 4370 ft | 233 kts | 70° |
| 2026-04-30 15:13 | 33.51601 | -84.13560 | 3967 ft | 221 kts | 40° |
| 2026-04-30 15:14 | 33.56696 | -84.12597 | 3969 ft | 179 kts | 359° |
| 2026-04-30 15:14 | 33.59587 | -84.14938 | 3775 ft | 181 kts | 309° |
| 2026-04-30 15:16 | 33.63074 | -84.21021 | 3031 ft | 184 kts | 287° |
| 2026-04-30 15:17 | 33.63168 | -84.26922 | 2853 ft | 168 kts | 275° |
| 2026-04-30 15:18 | 33.63178 | -84.33902 | 2306 ft | 150 kts | 274° |
| 2026-04-30 15:19 | 33.63181 | -84.37391 | 1732 ft | 136 kts | 274° |